Time,TemperatureF,DewpointF,PressureIn,WindDirection,WindDirectionDegrees,WindSpeedMPH,WindSpeedGustMPH,Humidity,HourlyPrecipIn,Conditions,Clouds,dailyrainin,SoftwareType,DateUTC
2013-05-02 00:02:00,35.2,26.1,28.70,West,270,0.0,0.0,69,0.00,,---,0.00,VWS V14.01,2013-05-02 07:02:00,
2013-05-02 00:07:00,34.9,25.8,28.70,West,270,0.0,0.0,69,0.00,,---,0.00,VWS V14.01,2013-05-02 07:07:00,
2013-05-02 00:12:00,34.9,26.1,28.70,West,270,0.0,0.0,70,0.00,,---,0.00,VWS V14.01,2013-05-02 07:12:00,
2013-05-02 00:17:00,34.9,26.1,28.70,West,270,0.0,0.0,70,0.00,,---,0.00,VWS V14.01,2013-05-02 07:17:00,
2013-05-02 00:22:00,34.5,25.8,28.70,West,270,0.0,0.0,70,0.00,,---,0.00,VWS V14.01,2013-05-02 07:22:00,
2013-05-02 00:27:00,34.5,26.1,28.70,West,270,0.0,0.0,71,0.00,,---,0.00,VWS V14.01,2013-05-02 07:27:00,
2013-05-02 00:32:00,34.5,26.1,28.70,West,270,0.0,0.0,71,0.00,,---,0.00,VWS V14.01,2013-05-02 07:32:00,
2013-05-02 00:37:00,34.5,26.1,28.70,WNW,292,0.0,0.0,71,0.00,,---,0.00,VWS V14.01,2013-05-02 07:37:00,
2013-05-02 00:42:00,34.3,26.3,28.70,WNW,292,0.0,0.0,72,0.00,,---,0.00,VWS V14.01,2013-05-02 07:42:00,
2013-05-02 00:47:00,34.3,26.3,28.70,WNW,292,0.0,0.0,72,0.00,,---,0.00,VWS V14.01,2013-05-02 07:47:00,
2013-05-02 00:52:00,34.2,26.1,28.70,WNW,292,0.0,0.0,72,0.00,,---,0.00,VWS V14.01,2013-05-02 07:52:00,
2013-05-02 00:57:00,34.0,25.9,28.70,WNW,292,0.0,0.0,72,0.00,,---,0.00,VWS V14.01,2013-05-02 07:57:00,
2013-05-02 01:02:00,33.8,25.7,28.70,WNW,292,0.0,0.0,72,0.00,,---,0.00,VWS V14.01,2013-05-02 08:02:00,
2013-05-02 01:07:00,33.8,26.1,28.70,WNW,292,0.0,0.0,73,0.00,,---,0.00,VWS V14.01,2013-05-02 08:07:00,
2013-05-02 01:12:00,33.8,26.1,28.70,WNW,292,0.0,0.0,73,0.00,,---,0.00,VWS V14.01,2013-05-02 08:12:00,
2013-05-02 01:17:00,34.0,26.2,28.70,WNW,292,0.0,0.0,73,0.00,,---,0.00,VWS V14.01,2013-05-02 08:17:00,
2013-05-02 01:22:00,34.0,26.2,28.70,WNW,292,0.0,0.0,73,0.00,,---,0.00,VWS V14.01,2013-05-02 08:22:00,
2013-05-02 01:28:00,34.0,26.2,28.70,WNW,292,0.0,0.0,73,0.00,,---,0.00,VWS V14.01,2013-05-02 08:28:00,
2013-05-02 01:33:00,34.2,26.8,28.70,WNW,292,0.0,0.0,74,0.00,,---,0.00,VWS V14.01,2013-05-02 08:33:00,
2013-05-02 01:38:00,34.0,26.6,28.70,WNW,292,0.0,0.0,74,0.00,,---,0.00,VWS V14.01,2013-05-02 08:38:00,
2013-05-02 01:43:00,34.0,26.6,28.70,WNW,292,0.0,0.0,74,0.00,,---,0.00,VWS V14.01,2013-05-02 08:43:00,
2013-05-02 01:48:00,34.0,26.6,28.70,WNW,292,0.0,0.0,74,0.00,,---,0.00,VWS V14.01,2013-05-02 08:48:00,
2013-05-02 01:53:00,33.8,26.4,28.70,WNW,292,0.0,0.0,74,0.00,,---,0.00,VWS V14.01,2013-05-02 08:53:00,
2013-05-02 01:58:00,34.0,26.9,28.70,WNW,292,0.0,0.0,75,0.00,,---,0.00,VWS V14.01,2013-05-02 08:58:00,
2013-05-02 02:03:00,33.8,26.7,28.70,WNW,292,0.0,0.0,75,0.00,,---,0.00,VWS V14.01,2013-05-02 09:03:00,
2013-05-02 02:08:00,33.8,26.7,28.70,WNW,292,0.0,0.0,75,0.00,,---,0.00,VWS V14.01,2013-05-02 09:08:00,
2013-05-02 02:13:00,33.8,26.7,28.70,WNW,292,0.0,0.0,75,0.00,,---,0.00,VWS V14.01,2013-05-02 09:13:00,
2013-05-02 02:18:00,33.8,26.7,28.70,WNW,292,0.0,0.0,75,0.00,,---,0.00,VWS V14.01,2013-05-02 09:18:00,
2013-05-02 02:23:00,33.8,26.7,28.70,WNW,292,0.0,0.0,75,0.00,,---,0.00,VWS V14.01,2013-05-02 09:23:00,
2013-05-02 02:28:00,33.8,26.7,28.70,WNW,292,0.0,0.0,75,0.00,,---,0.00,VWS V14.01,2013-05-02 09:28:00,
2013-05-02 02:33:00,33.8,26.7,28.70,WNW,292,0.0,0.0,75,0.00,,---,0.00,VWS V14.01,2013-05-02 09:33:00,
2013-05-02 02:38:00,34.0,27.2,28.70,WNW,292,0.0,0.0,76,0.00,,---,0.00,VWS V14.01,2013-05-02 09:38:00,
2013-05-02 02:43:00,33.8,27.0,28.70,WNW,292,0.0,0.0,76,0.00,,---,0.00,VWS V14.01,2013-05-02 09:43:00,
2013-05-02 02:48:00,33.8,27.0,28.70,WNW,292,0.0,0.0,76,0.00,,---,0.00,VWS V14.01,2013-05-02 09:48:00,
2013-05-02 02:53:00,33.6,27.2,28.70,WNW,292,0.0,0.0,77,0.00,,---,0.00,VWS V14.01,2013-05-02 09:53:00,
2013-05-02 02:58:00,33.3,26.8,28.70,WNW,292,0.0,0.0,77,0.00,,---,0.00,VWS V14.01,2013-05-02 09:58:00,
2013-05-02 03:03:00,33.3,26.8,28.70,WNW,292,0.0,0.0,77,0.00,,---,0.00,VWS V14.01,2013-05-02 10:03:00,
2013-05-02 03:08:00,33.1,26.7,28.70,WNW,292,0.0,0.0,77,0.00,,---,0.00,VWS V14.01,2013-05-02 10:08:00,
2013-05-02 03:13:00,33.1,26.7,28.70,WNW,292,0.0,0.0,77,0.00,,---,0.00,VWS V14.01,2013-05-02 10:13:00,
2013-05-02 03:18:00,33.1,26.7,28.70,WNW,292,0.0,0.0,77,0.00,,---,0.00,VWS V14.01,2013-05-02 10:18:00,
2013-05-02 03:23:00,33.1,26.7,28.70,WNW,292,0.0,0.0,77,0.00,,---,0.00,VWS V14.01,2013-05-02 10:23:00,
2013-05-02 03:28:00,33.1,26.7,28.70,WNW,292,0.0,0.0,77,0.00,,---,0.00,VWS V14.01,2013-05-02 10:28:00,
2013-05-02 03:33:00,33.1,27.0,28.70,WNW,292,0.0,0.0,78,0.00,,---,0.00,VWS V14.01,2013-05-02 10:33:00,
2013-05-02 03:38:00,33.1,27.0,28.70,WNW,292,0.0,0.0,78,0.00,,---,0.00,VWS V14.01,2013-05-02 10:38:00,
2013-05-02 03:43:00,33.1,27.0,28.70,WNW,292,0.0,0.0,78,0.00,,---,0.00,VWS V14.01,2013-05-02 10:43:00,
2013-05-02 03:48:00,33.1,27.0,28.70,WNW,292,0.0,0.0,78,0.00,,---,0.00,VWS V14.01,2013-05-02 10:48:00,
2013-05-02 03:53:00,33.3,27.5,28.70,NE,45,0.0,0.0,79,0.00,,---,0.00,VWS V14.01,2013-05-02 10:53:00,
2013-05-02 03:58:00,33.3,27.5,28.70,WSW,248,0.0,0.0,79,0.00,,---,0.00,VWS V14.01,2013-05-02 10:58:00,
2013-05-02 04:03:00,33.4,27.6,28.70,WNW,292,0.0,0.0,79,0.00,,---,0.00,VWS V14.01,2013-05-02 11:03:00,
2013-05-02 04:08:00,33.3,27.5,28.70,WNW,292,0.0,0.0,79,0.00,,---,0.00,VWS V14.01,2013-05-02 11:08:00,
2013-05-02 04:13:00,33.1,27.3,28.70,WNW,292,0.0,0.0,79,0.00,,---,0.00,VWS V14.01,2013-05-02 11:13:00,
2013-05-02 04:18:00,32.9,27.1,28.67,WNW,292,0.0,0.0,79,0.00,,---,0.00,VWS V14.01,2013-05-02 11:18:00,
2013-05-02 04:23:00,32.7,26.9,28.67,WNW,292,0.0,0.0,79,0.00,,---,0.00,VWS V14.01,2013-05-02 11:23:00,
2013-05-02 04:28:00,32.9,27.1,28.67,WNW,292,0.0,0.0,79,0.00,,---,0.00,VWS V14.01,2013-05-02 11:28:00,
2013-05-02 04:33:00,32.7,26.9,28.67,WNW,292,0.0,0.0,79,0.00,,---,0.00,VWS V14.01,2013-05-02 11:33:00,
2013-05-02 04:38:00,32.4,26.6,28.67,WNW,292,0.0,0.0,79,0.00,,---,0.00,VWS V14.01,2013-05-02 11:38:00,
2013-05-02 04:43:00,32.4,26.6,28.67,WNW,292,0.0,0.0,79,0.00,,---,0.00,VWS V14.01,2013-05-02 11:43:00,
2013-05-02 04:48:00,32.0,26.2,28.67,WNW,292,0.0,0.0,79,0.00,,---,0.00,VWS V14.01,2013-05-02 11:48:00,
2013-05-02 04:53:00,31.8,26.1,28.67,WNW,292,0.0,0.0,79,0.00,,---,0.00,VWS V14.01,2013-05-02 11:53:00,
2013-05-02 04:58:00,31.6,26.2,28.67,WNW,292,0.0,0.0,80,0.00,,---,0.00,VWS V14.01,2013-05-02 11:58:00,
2013-05-02 05:03:00,31.5,26.0,28.67,WNW,292,0.0,0.0,80,0.00,,---,0.00,VWS V14.01,2013-05-02 12:03:00,
2013-05-02 05:08:00,31.3,25.8,28.67,WNW,292,0.0,0.0,80,0.00,,---,0.00,VWS V14.01,2013-05-02 12:08:00,
2013-05-02 05:13:00,31.1,25.7,28.67,WNW,292,0.0,0.0,80,0.00,,---,0.00,VWS V14.01,2013-05-02 12:13:00,
2013-05-02 05:18:00,31.1,25.7,28.70,WNW,292,0.0,0.0,80,0.00,,---,0.00,VWS V14.01,2013-05-02 12:18:00,
2013-05-02 05:23:00,30.9,25.5,28.70,WNW,292,0.0,0.0,80,0.00,,---,0.00,VWS V14.01,2013-05-02 12:23:00,
2013-05-02 05:28:00,30.9,25.5,28.67,WNW,292,0.0,0.0,80,0.00,,---,0.00,VWS V14.01,2013-05-02 12:28:00,
2013-05-02 05:33:00,30.7,25.6,28.67,WNW,292,0.0,0.0,81,0.00,,---,0.00,VWS V14.01,2013-05-02 12:33:00,
2013-05-02 05:38:00,30.7,25.3,28.67,WNW,292,0.0,0.0,80,0.00,,---,0.00,VWS V14.01,2013-05-02 12:38:00,
2013-05-02 05:43:00,30.6,25.4,28.67,WNW,292,0.0,0.0,81,0.00,,---,0.00,VWS V14.01,2013-05-02 12:43:00,
2013-05-02 05:48:00,30.4,25.3,28.67,WNW,292,0.0,0.0,81,0.00,,---,0.00,VWS V14.01,2013-05-02 12:48:00,
2013-05-02 05:53:00,30.6,25.4,28.67,WNW,292,0.0,0.0,81,0.00,,---,0.00,VWS V14.01,2013-05-02 12:53:00,
2013-05-02 05:58:00,30.6,25.7,28.67,WNW,292,0.0,0.0,82,0.00,,---,0.00,VWS V14.01,2013-05-02 12:58:00,
2013-05-02 06:03:00,30.6,25.7,28.67,WNW,292,0.0,0.0,82,0.00,,---,0.00,VWS V14.01,2013-05-02 13:03:00,
2013-05-02 06:08:00,30.4,25.5,28.67,WNW,292,0.0,0.0,82,0.00,,---,0.00,VWS V14.01,2013-05-02 13:08:00,
2013-05-02 06:13:00,30.6,25.7,28.67,WNW,292,0.0,0.0,82,0.00,,---,0.00,VWS V14.01,2013-05-02 13:13:00,
2013-05-02 06:18:00,30.7,25.9,28.67,WNW,292,0.0,0.0,82,0.00,,---,0.00,VWS V14.01,2013-05-02 13:18:00,
2013-05-02 06:23:00,30.6,26.0,28.67,WNW,292,0.0,0.0,83,0.00,,---,0.00,VWS V14.01,2013-05-02 13:23:00,
2013-05-02 06:28:00,30.6,25.7,28.67,WNW,292,0.0,0.0,82,0.00,,---,0.00,VWS V14.01,2013-05-02 13:28:00,
2013-05-02 06:33:00,30.7,25.9,28.67,WNW,292,0.0,0.0,82,0.00,,---,0.00,VWS V14.01,2013-05-02 13:33:00,
2013-05-02 06:39:00,31.3,26.7,28.67,WNW,292,0.0,0.0,83,0.00,,---,0.00,VWS V14.01,2013-05-02 13:39:00,
2013-05-02 06:44:00,31.3,26.7,28.67,WNW,292,0.0,0.0,83,0.00,,---,0.00,VWS V14.01,2013-05-02 13:44:00,
2013-05-02 06:49:00,31.3,26.7,28.67,WNW,292,0.0,0.0,83,0.00,,---,0.00,VWS V14.01,2013-05-02 13:49:00,
2013-05-02 06:54:00,31.3,26.7,28.67,WNW,292,0.0,0.0,83,0.00,,---,0.00,VWS V14.01,2013-05-02 13:54:00,
2013-05-02 06:59:00,31.5,26.9,28.70,WNW,292,0.0,0.0,83,0.00,,---,0.00,VWS V14.01,2013-05-02 13:59:00,
2013-05-02 07:04:00,31.6,27.4,28.70,WNW,292,0.0,0.0,84,0.00,,---,0.00,VWS V14.01,2013-05-02 14:04:00,
2013-05-02 07:09:00,32.2,27.9,28.70,WNW,292,0.0,0.0,84,0.00,,---,0.00,VWS V14.01,2013-05-02 14:09:00,
2013-05-02 07:14:00,33.1,29.1,28.70,ENE,68,0.0,0.9,85,0.00,,---,0.00,VWS V14.01,2013-05-02 14:14:00,
2013-05-02 07:19:00,33.4,29.4,28.70,ENE,68,0.0,0.0,85,0.00,,---,0.00,VWS V14.01,2013-05-02 14:19:00,
2013-05-02 07:24:00,34.0,30.0,28.70,ENE,68,0.0,0.0,85,0.00,,---,0.00,VWS V14.01,2013-05-02 14:24:00,
2013-05-02 07:29:00,34.7,30.7,28.67,ENE,68,0.0,0.0,85,0.00,,---,0.00,VWS V14.01,2013-05-02 14:29:00,
2013-05-02 07:39:00,37.0,33.0,28.67,NE,45,0.0,0.0,85,0.00,,---,0.00,VWS V14.01,2013-05-02 14:39:00,
2013-05-02 07:44:00,37.6,32.9,28.67,ENE,68,0.0,0.0,83,0.00,,---,0.00,VWS V14.01,2013-05-02 14:44:00,
2013-05-02 07:55:00,38.7,33.0,28.67,ENE,68,0.0,0.0,80,0.00,,---,0.00,VWS V14.01,2013-05-02 14:55:00,
2013-05-02 08:00:00,39.0,33.1,28.67,ENE,68,0.0,0.0,79,0.00,,---,0.00,VWS V14.01,2013-05-02 15:00:00,
2013-05-02 08:05:00,40.3,34.0,28.67,ENE,68,0.0,0.0,78,0.00,,---,0.00,VWS V14.01,2013-05-02 15:05:00,
2013-05-02 08:10:00,42.3,35.9,28.67,ENE,68,0.0,0.0,78,0.00,,---,0.00,VWS V14.01,2013-05-02 15:10:00,
2013-05-02 08:15:00,45.1,38.0,28.67,ENE,68,0.0,0.0,76,0.00,,---,0.00,VWS V14.01,2013-05-02 15:15:00,
2013-05-02 08:20:00,46.6,38.0,28.67,East,90,1.1,1.3,72,0.00,,---,0.00,VWS V14.01,2013-05-02 15:20:00,
2013-05-02 08:25:00,47.1,35.2,28.67,ENE,68,0.0,0.9,63,0.00,,---,0.00,VWS V14.01,2013-05-02 15:25:00,
2013-05-02 08:30:00,46.8,32.3,28.64,East,90,0.0,2.2,57,0.00,,---,0.00,VWS V14.01,2013-05-02 15:30:00,
2013-05-02 08:35:00,47.3,32.0,28.64,ENE,68,0.0,2.0,55,0.00,,---,0.00,VWS V14.01,2013-05-02 15:35:00,
2013-05-02 08:40:00,48.7,30.5,28.64,East,90,2.7,3.1,49,0.00,,---,0.00,VWS V14.01,2013-05-02 15:40:00,
2013-05-02 08:45:00,50.9,33.4,28.64,ESE,112,0.0,0.0,51,0.00,,---,0.00,VWS V14.01,2013-05-02 15:45:00,
2013-05-02 08:50:00,52.7,33.6,28.64,NNE,22,0.0,0.0,48,0.00,,---,0.00,VWS V14.01,2013-05-02 15:50:00,
2013-05-02 08:55:00,53.8,34.0,28.64,ENE,68,0.0,0.0,47,0.00,,---,0.00,VWS V14.01,2013-05-02 15:55:00,
2013-05-02 09:00:00,56.3,35.8,28.64,ESE,112,0.9,0.9,46,0.00,,---,0.00,VWS V14.01,2013-05-02 16:00:00,
2013-05-02 09:05:00,57.2,33.7,28.64,NE,45,1.3,1.6,41,0.00,,---,0.00,VWS V14.01,2013-05-02 16:05:00,
2013-05-02 09:10:00,57.6,31.5,28.64,ESE,112,2.5,2.5,37,0.00,,---,0.00,VWS V14.01,2013-05-02 16:10:00,
2013-05-02 09:15:00,58.8,32.0,28.64,East,90,1.1,2.0,36,0.00,,---,0.00,VWS V14.01,2013-05-02 16:15:00,
2013-05-02 09:20:00,59.2,32.3,28.64,ENE,68,1.1,1.6,36,0.00,,---,0.00,VWS V14.01,2013-05-02 16:20:00,
2013-05-02 09:25:00,59.7,32.0,28.64,East,90,2.0,4.0,35,0.00,,---,0.00,VWS V14.01,2013-05-02 16:25:00,
2013-05-02 09:30:00,60.4,32.7,28.64,East,90,1.1,1.6,35,0.00,,---,0.00,VWS V14.01,2013-05-02 16:30:00,
2013-05-02 09:35:00,60.4,31.2,28.64,East,90,3.1,3.1,33,0.00,,---,0.00,VWS V14.01,2013-05-02 16:35:00,
2013-05-02 09:40:00,59.9,30.8,28.64,NNW,338,1.1,1.1,33,0.00,,---,0.00,VWS V14.01,2013-05-02 16:40:00,
2013-05-02 09:45:00,59.4,29.5,28.64,SSE,158,0.0,0.0,32,0.00,,---,0.00,VWS V14.01,2013-05-02 16:45:00,
2013-05-02 09:50:00,59.4,29.5,28.64,WSW,248,0.0,1.6,32,0.00,,---,0.00,VWS V14.01,2013-05-02 16:50:00,
2013-05-02 09:55:00,59.5,28.1,28.64,NNW,338,2.0,2.2,30,0.00,,---,0.00,VWS V14.01,2013-05-02 16:55:00,
2013-05-02 10:00:00,59.9,30.0,28.61,ESE,112,2.0,2.7,32,0.00,,---,0.00,VWS V14.01,2013-05-02 17:00:00,
2013-05-02 10:05:00,60.1,30.1,28.61,ENE,68,2.0,2.7,32,0.00,,---,0.00,VWS V14.01,2013-05-02 17:05:00,
2013-05-02 10:10:00,59.9,29.2,28.61,NE,45,0.0,0.0,31,0.00,,---,0.00,VWS V14.01,2013-05-02 17:10:00,
2013-05-02 10:15:00,60.3,28.7,28.61,ESE,112,3.4,3.8,30,0.00,,---,0.00,VWS V14.01,2013-05-02 17:15:00,
2013-05-02 10:21:00,59.7,28.3,28.61,NNE,22,2.5,3.1,30,0.00,,---,0.00,VWS V14.01,2013-05-02 17:21:00,
2013-05-02 10:26:00,60.4,28.9,28.61,ENE,68,3.4,3.4,30,0.00,,---,0.00,VWS V14.01,2013-05-02 17:26:00,
2013-05-02 10:31:00,61.3,28.8,28.61,NE,45,2.2,6.3,29,0.00,,---,0.00,VWS V14.01,2013-05-02 17:31:00,
2013-05-02 10:36:00,63.0,31.1,28.61,West,270,0.0,2.0,30,0.00,,---,0.00,VWS V14.01,2013-05-02 17:36:00,
2013-05-02 10:41:00,64.2,30.5,28.61,WSW,248,0.0,3.1,28,0.00,,---,0.00,VWS V14.01,2013-05-02 17:41:00,
2013-05-02 10:46:00,66.2,31.3,28.58,ENE,68,3.4,3.6,27,0.00,,---,0.00,VWS V14.01,2013-05-02 17:46:00,
2013-05-02 10:51:00,66.7,29.8,28.58,WSW,248,3.6,3.6,25,0.00,,---,0.00,VWS V14.01,2013-05-02 17:51:00,
2013-05-02 10:56:00,67.5,30.4,28.58,NNE,22,2.7,3.1,25,0.00,,---,0.00,VWS V14.01,2013-05-02 17:56:00,
2013-05-02 11:01:00,69.3,31.0,28.58,NNW,338,2.5,2.5,24,0.00,,---,0.00,VWS V14.01,2013-05-02 18:01:00,
2013-05-02 11:06:00,69.3,29.9,28.58,NNE,22,2.9,2.9,23,0.00,,---,0.00,VWS V14.01,2013-05-02 18:06:00,
2013-05-02 11:11:00,70.7,31.1,28.58,NE,45,2.7,2.7,23,0.00,,---,0.00,VWS V14.01,2013-05-02 18:11:00,
2013-05-02 11:16:00,72.1,31.2,28.58,SSW,202,2.7,2.7,22,0.00,,---,0.00,VWS V14.01,2013-05-02 18:16:00,
2013-05-02 11:21:00,71.6,30.8,28.58,SSE,158,2.0,2.5,22,0.00,,---,0.00,VWS V14.01,2013-05-02 18:21:00,
2013-05-02 11:26:00,72.7,31.7,28.58,SSW,202,0.0,0.0,22,0.00,,---,0.00,VWS V14.01,2013-05-02 18:26:00,
2013-05-02 11:31:00,72.0,29.9,28.58,ENE,68,3.8,3.8,21,0.00,,---,0.00,VWS V14.01,2013-05-02 18:31:00,
2013-05-02 11:36:00,71.8,27.3,28.58,ENE,68,5.6,7.6,19,0.00,,---,0.00,VWS V14.01,2013-05-02 18:36:00,
2013-05-02 11:42:00,72.3,31.4,28.58,NE,45,1.6,1.6,22,0.00,,---,0.00,VWS V14.01,2013-05-02 18:42:00,
2013-05-02 11:47:00,71.8,27.3,28.55,WSW,248,0.0,2.5,19,0.00,,---,0.00,VWS V14.01,2013-05-02 18:47:00,
2013-05-02 11:52:00,73.2,28.5,28.55,SE,135,3.1,4.3,19,0.00,,---,0.00,VWS V14.01,2013-05-02 18:52:00,
2013-05-02 11:57:00,72.7,28.1,28.55,West,270,3.8,3.8,19,0.00,,---,0.00,VWS V14.01,2013-05-02 18:57:00,
2013-05-02 12:02:00,72.9,28.2,28.55,WNW,292,1.1,1.1,19,0.00,,---,0.00,VWS V14.01,2013-05-02 19:02:00,
2013-05-02 12:07:00,73.9,27.8,28.55,East,90,4.9,4.9,18,0.00,,---,0.00,VWS V14.01,2013-05-02 19:07:00,
2013-05-02 12:12:00,73.6,27.5,28.55,SE,135,2.9,2.9,18,0.00,,---,0.00,VWS V14.01,2013-05-02 19:12:00,
2013-05-02 12:17:00,74.8,28.5,28.55,SE,135,1.6,3.4,18,0.00,,---,0.00,VWS V14.01,2013-05-02 19:17:00,
2013-05-02 12:22:00,75.2,28.8,28.55,ENE,68,3.1,4.3,18,0.00,,---,0.00,VWS V14.01,2013-05-02 19:22:00,
2013-05-02 12:27:00,74.8,25.7,28.55,North,0,1.6,4.0,16,0.00,,---,0.00,VWS V14.01,2013-05-02 19:27:00,
2013-05-02 12:32:00,73.8,24.8,28.52,ESE,112,3.1,4.3,16,0.00,,---,0.00,VWS V14.01,2013-05-02 19:32:00,
2013-05-02 12:37:00,74.5,28.2,28.52,ESE,112,6.0,6.0,18,0.00,,---,0.00,VWS V14.01,2013-05-02 19:37:00,
2013-05-02 12:42:00,73.8,27.6,28.52,ESE,112,2.0,3.6,18,0.00,,---,0.00,VWS V14.01,2013-05-02 19:42:00,
2013-05-02 12:47:00,73.0,28.4,28.52,East,90,2.2,4.3,19,0.00,,---,0.00,VWS V14.01,2013-05-02 19:47:00,
2013-05-02 12:52:00,72.1,27.6,28.52,East,90,3.8,3.8,19,0.00,,---,0.00,VWS V14.01,2013-05-02 19:52:00,
2013-05-02 12:57:00,71.1,24.1,28.52,ESE,112,6.0,6.0,17,0.00,,---,0.00,VWS V14.01,2013-05-02 19:57:00,
2013-05-02 13:02:00,70.5,26.3,28.52,NE,45,2.0,2.5,19,0.00,,---,0.00,VWS V14.01,2013-05-02 20:02:00,
2013-05-02 13:07:00,70.7,26.5,28.52,SE,135,1.6,1.6,19,0.00,,---,0.00,VWS V14.01,2013-05-02 20:07:00,
2013-05-02 13:12:00,70.7,26.5,28.52,SE,135,3.4,3.4,19,0.00,,---,0.00,VWS V14.01,2013-05-02 20:12:00,
2013-05-02 13:17:00,70.5,29.9,28.52,SW,225,1.3,1.3,22,0.00,,---,0.00,VWS V14.01,2013-05-02 20:17:00,
2013-05-02 13:22:00,71.4,30.6,28.52,NNE,22,0.0,0.0,22,0.00,,---,0.00,VWS V14.01,2013-05-02 20:22:00,
2013-05-02 13:27:00,72.0,29.9,28.52,ENE,68,3.4,3.4,21,0.00,,---,0.00,VWS V14.01,2013-05-02 20:27:00,
2013-05-02 13:32:00,72.9,28.2,28.52,NE,45,3.6,3.6,19,0.00,,---,0.00,VWS V14.01,2013-05-02 20:32:00,
2013-05-02 13:37:00,74.1,27.9,28.52,East,90,1.3,4.0,18,0.00,,---,0.00,VWS V14.01,2013-05-02 20:37:00,
2013-05-02 13:42:00,75.0,28.7,28.52,ENE,68,2.9,3.1,18,0.00,,---,0.00,VWS V14.01,2013-05-02 20:42:00,
2013-05-02 13:47:00,76.3,29.7,28.50,ENE,68,2.5,2.5,18,0.00,,---,0.00,VWS V14.01,2013-05-02 20:47:00,
2013-05-02 13:52:00,76.1,32.2,28.50,SSE,158,2.0,2.0,20,0.00,,---,0.00,VWS V14.01,2013-05-02 20:52:00,
2013-05-02 13:57:00,75.9,29.4,28.50,ESE,112,2.0,2.7,18,0.00,,---,0.00,VWS V14.01,2013-05-02 20:57:00,
2013-05-02 14:02:00,74.5,28.2,28.50,ESE,112,1.3,3.1,18,0.00,,---,0.00,VWS V14.01,2013-05-02 21:02:00,
2013-05-02 14:07:00,74.8,28.5,28.50,SSE,158,0.0,1.3,18,0.00,,---,0.00,VWS V14.01,2013-05-02 21:07:00,
2013-05-02 14:12:00,74.3,28.1,28.50,West,270,2.2,2.9,18,0.00,,---,0.00,VWS V14.01,2013-05-02 21:12:00,
2013-05-02 14:17:00,74.1,27.9,28.50,NW,315,2.7,2.7,18,0.00,,---,0.00,VWS V14.01,2013-05-02 21:17:00,
2013-05-02 14:22:00,74.1,27.9,28.50,ENE,68,3.8,5.4,18,0.00,,---,0.00,VWS V14.01,2013-05-02 21:22:00,
2013-05-02 14:27:00,74.8,28.5,28.50,WSW,248,2.2,2.5,18,0.00,,---,0.00,VWS V14.01,2013-05-02 21:27:00,
2013-05-02 14:32:00,76.1,29.6,28.47,West,270,2.9,2.9,18,0.00,,---,0.00,VWS V14.01,2013-05-02 21:32:00,
2013-05-02 14:37:00,76.5,29.9,28.47,SE,135,1.1,2.9,18,0.00,,---,0.00,VWS V14.01,2013-05-02 21:37:00,
2013-05-02 14:42:00,78.8,30.4,28.47,ENE,68,2.7,2.9,17,0.00,,---,0.00,VWS V14.01,2013-05-02 21:42:00,
2013-05-02 14:47:00,79.0,30.5,28.47,ENE,68,1.6,2.0,17,0.00,,---,0.00,VWS V14.01,2013-05-02 21:47:00,
2013-05-02 14:52:00,79.5,27.9,28.47,SW,225,2.9,4.0,15,0.00,,---,0.00,VWS V14.01,2013-05-02 21:52:00,
2013-05-02 14:57:00,81.0,27.3,28.47,NNW,338,4.0,4.3,14,0.00,,---,0.00,VWS V14.01,2013-05-02 21:57:00,
2013-05-02 15:02:00,81.1,27.5,28.47,ESE,112,2.2,2.2,14,0.00,,---,0.00,VWS V14.01,2013-05-02 22:02:00,
2013-05-02 15:08:00,81.9,24.3,28.47,North,0,0.0,2.0,12,0.00,,---,0.00,VWS V14.01,2013-05-02 22:08:00,
2013-05-02 15:13:00,81.9,28.0,28.47,SW,225,0.0,1.1,14,0.00,,---,0.00,VWS V14.01,2013-05-02 22:13:00,
2013-05-02 15:18:00,81.7,24.2,28.47,North,0,2.7,2.7,12,0.00,,---,0.00,VWS V14.01,2013-05-02 22:18:00,
2013-05-02 15:23:00,81.3,23.9,28.47,WSW,248,0.0,0.9,12,0.00,,---,0.00,VWS V14.01,2013-05-02 22:23:00,
2013-05-02 15:28:00,81.0,23.6,28.47,SW,225,1.3,1.6,12,0.00,,---,0.00,VWS V14.01,2013-05-02 22:28:00,
2013-05-02 15:33:00,81.0,23.6,28.44,NNE,22,0.0,0.0,12,0.00,,---,0.00,VWS V14.01,2013-05-02 22:33:00,
2013-05-02 15:38:00,81.1,23.8,28.44,SW,225,1.1,2.0,12,0.00,,---,0.00,VWS V14.01,2013-05-02 22:38:00,
2013-05-02 15:43:00,80.2,23.1,28.44,West,270,0.0,2.5,12,0.00,,---,0.00,VWS V14.01,2013-05-02 22:43:00,
2013-05-02 15:48:00,80.1,22.9,28.47,WNW,292,0.0,0.0,12,0.00,,---,0.00,VWS V14.01,2013-05-02 22:48:00,
2013-05-02 15:53:00,79.7,22.6,28.47,WSW,248,0.0,0.0,12,0.00,,---,0.00,VWS V14.01,2013-05-02 22:53:00,
2013-05-02 15:58:00,78.8,22.0,28.47,WNW,292,0.0,0.0,12,0.00,,---,0.00,VWS V14.01,2013-05-02 22:58:00,
2013-05-02 16:03:00,77.5,22.9,28.44,ESE,112,0.0,1.1,13,0.00,,---,0.00,VWS V14.01,2013-05-02 23:03:00,
2013-05-02 16:08:00,76.5,25.4,28.44,West,270,0.0,2.5,15,0.00,,---,0.00,VWS V14.01,2013-05-02 23:08:00,
2013-05-02 16:13:00,75.7,24.9,28.44,NNW,338,0.9,2.9,15,0.00,,---,0.00,VWS V14.01,2013-05-02 23:13:00,
2013-05-02 16:18:00,75.0,28.7,28.44,WSW,248,2.0,2.5,18,0.00,,---,0.00,VWS V14.01,2013-05-02 23:18:00,
2013-05-02 16:23:00,74.8,28.5,28.44,WNW,292,0.0,1.3,18,0.00,,---,0.00,VWS V14.01,2013-05-02 23:23:00,
2013-05-02 16:28:00,74.5,28.2,28.44,WSW,248,1.3,1.3,18,0.00,,---,0.00,VWS V14.01,2013-05-02 23:28:00,
2013-05-02 16:33:00,74.1,27.9,28.44,WSW,248,0.0,0.0,18,0.00,,---,0.00,VWS V14.01,2013-05-02 23:33:00,
2013-05-02 16:38:00,73.8,31.4,28.44,WSW,248,1.6,1.6,21,0.00,,---,0.00,VWS V14.01,2013-05-02 23:38:00,
2013-05-02 16:43:00,73.6,31.3,28.44,WSW,248,0.0,0.0,21,0.00,,---,0.00,VWS V14.01,2013-05-02 23:43:00,
2013-05-02 16:48:00,73.8,31.4,28.44,South,180,0.0,0.0,21,0.00,,---,0.00,VWS V14.01,2013-05-02 23:48:00,
2013-05-02 16:53:00,73.8,31.4,28.44,NE,45,0.0,0.0,21,0.00,,---,0.00,VWS V14.01,2013-05-02 23:53:00,
2013-05-02 16:58:00,73.8,31.4,28.44,WSW,248,0.0,0.0,21,0.00,,---,0.00,VWS V14.01,2013-05-02 23:58:00,
2013-05-02 17:03:00,73.6,31.3,28.44,SE,135,0.0,0.0,21,0.00,,---,0.00,VWS V14.01,2013-05-03 00:03:00,
2013-05-02 17:08:00,73.4,31.1,28.44,South,180,0.0,0.0,21,0.00,,---,0.00,VWS V14.01,2013-05-03 00:08:00,
2013-05-02 17:13:00,72.9,34.0,28.44,WSW,248,0.0,0.0,24,0.00,,---,0.00,VWS V14.01,2013-05-03 00:13:00,
2013-05-02 17:18:00,72.5,32.6,28.41,ENE,68,0.0,1.3,23,0.00,,---,0.00,VWS V14.01,2013-05-03 00:18:00,
2013-05-02 17:23:00,72.5,27.9,28.41,ESE,112,2.2,3.6,19,0.00,,---,0.00,VWS V14.01,2013-05-03 00:23:00,
2013-05-02 17:28:00,72.1,30.1,28.41,WNW,292,3.6,3.6,21,0.00,,---,0.00,VWS V14.01,2013-05-03 00:28:00,
2013-05-02 17:33:00,71.8,23.2,28.44,ESE,112,2.5,2.5,16,0.00,,---,0.00,VWS V14.01,2013-05-03 00:33:00,
2013-05-02 17:38:00,71.8,23.2,28.44,NE,45,1.3,1.3,16,0.00,,---,0.00,VWS V14.01,2013-05-03 00:38:00,
2013-05-02 17:43:00,71.6,23.1,28.41,ENE,68,0.0,0.0,16,0.00,,---,0.00,VWS V14.01,2013-05-03 00:43:00,
2013-05-02 17:48:00,71.4,19.8,28.41,ENE,68,2.0,2.9,14,0.00,,---,0.00,VWS V14.01,2013-05-03 00:48:00,
2013-05-02 17:53:00,71.1,26.8,28.41,West,270,0.0,2.0,19,0.00,,---,0.00,VWS V14.01,2013-05-03 00:53:00,
2013-05-02 17:58:00,70.3,23.5,28.41,NNE,22,5.4,5.4,17,0.00,,---,0.00,VWS V14.01,2013-05-03 00:58:00,
2013-05-02 18:03:00,70.2,26.0,28.41,WSW,248,1.3,1.6,19,0.00,,---,0.00,VWS V14.01,2013-05-03 01:03:00,
2013-05-02 18:08:00,69.3,29.9,28.41,WSW,248,1.1,1.3,23,0.00,,---,0.00,VWS V14.01,2013-05-03 01:08:00,
2013-05-02 18:13:00,68.4,29.1,28.41,SW,225,1.6,1.6,23,0.00,,---,0.00,VWS V14.01,2013-05-03 01:13:00,
2013-05-02 18:18:00,67.8,28.7,28.41,West,270,0.0,0.0,23,0.00,,---,0.00,VWS V14.01,2013-05-03 01:18:00,
2013-05-02 18:23:00,67.5,29.4,28.41,WSW,248,2.2,2.2,24,0.00,,---,0.00,VWS V14.01,2013-05-03 01:23:00,
2013-05-02 18:28:00,66.9,29.0,28.41,WSW,248,0.9,2.0,24,0.00,,---,0.00,VWS V14.01,2013-05-03 01:28:00,
2013-05-02 18:33:00,66.4,29.5,28.41,WSW,248,0.0,0.0,25,0.00,,---,0.00,VWS V14.01,2013-05-03 01:33:00,
2013-05-02 18:38:00,65.8,30.0,28.41,WSW,248,0.0,0.0,26,0.00,,---,0.00,VWS V14.01,2013-05-03 01:38:00,
2013-05-02 18:43:00,65.3,30.5,28.41,West,270,0.0,0.0,27,0.00,,---,0.00,VWS V14.01,2013-05-03 01:43:00,
2013-05-02 18:48:00,64.6,30.8,28.41,SSW,202,1.6,1.6,28,0.00,,---,0.00,VWS V14.01,2013-05-03 01:48:00,
2013-05-02 18:53:00,64.4,31.5,28.41,West,270,0.0,0.0,29,0.00,,---,0.00,VWS V14.01,2013-05-03 01:53:00,
2013-05-02 18:58:00,63.9,31.9,28.41,West,270,0.0,0.0,30,0.00,,---,0.00,VWS V14.01,2013-05-03 01:58:00,
2013-05-02 19:03:00,63.5,32.3,28.41,West,270,0.0,0.0,31,0.00,,---,0.00,VWS V14.01,2013-05-03 02:03:00,
2013-05-02 19:09:00,63.0,31.9,28.41,SSW,202,1.3,1.3,31,0.00,,---,0.00,VWS V14.01,2013-05-03 02:09:00,
2013-05-02 19:14:00,62.8,32.5,28.44,West,270,0.0,0.0,32,0.00,,---,0.00,VWS V14.01,2013-05-03 02:14:00,
2013-05-02 19:19:00,62.4,33.0,28.44,West,270,0.0,0.0,33,0.00,,---,0.00,VWS V14.01,2013-05-03 02:19:00,
2013-05-02 19:24:00,62.1,33.4,28.44,West,270,0.0,0.0,34,0.00,,---,0.00,VWS V14.01,2013-05-03 02:24:00,
2013-05-02 19:29:00,61.7,33.1,28.41,West,270,0.0,0.0,34,0.00,,---,0.00,VWS V14.01,2013-05-03 02:29:00,
2013-05-02 19:34:00,61.3,32.8,28.41,WSW,248,1.1,2.2,34,0.00,,---,0.00,VWS V14.01,2013-05-03 02:34:00,
2013-05-02 19:39:00,61.0,32.4,28.41,WSW,248,2.2,2.2,34,0.00,,---,0.00,VWS V14.01,2013-05-03 02:39:00,
2013-05-02 19:44:00,60.6,32.1,28.41,WSW,248,0.0,0.0,34,0.00,,---,0.00,VWS V14.01,2013-05-03 02:44:00,
2013-05-02 19:49:00,60.3,31.8,28.41,WSW,248,0.0,0.0,34,0.00,,---,0.00,VWS V14.01,2013-05-03 02:49:00,
2013-05-02 19:54:00,59.9,32.2,28.41,WSW,248,0.0,0.0,35,0.00,,---,0.00,VWS V14.01,2013-05-03 02:54:00,
2013-05-02 19:59:00,59.7,32.0,28.41,NNW,338,0.0,0.0,35,0.00,,---,0.00,VWS V14.01,2013-05-03 02:59:00,
2013-05-02 20:04:00,59.2,31.6,28.41,WSW,248,0.0,0.0,35,0.00,,---,0.00,VWS V14.01,2013-05-03 03:04:00,
2013-05-02 20:09:00,59.0,31.4,28.41,West,270,0.0,0.0,35,0.00,,---,0.00,VWS V14.01,2013-05-03 03:09:00,
2013-05-02 20:14:00,58.6,31.8,28.41,West,270,0.0,0.0,36,0.00,,---,0.00,VWS V14.01,2013-05-03 03:14:00,
2013-05-02 20:19:00,58.3,31.5,28.41,West,270,0.0,0.0,36,0.00,,---,0.00,VWS V14.01,2013-05-03 03:19:00,
2013-05-02 20:24:00,57.9,31.1,28.41,West,270,0.0,0.0,36,0.00,,---,0.00,VWS V14.01,2013-05-03 03:24:00,
2013-05-02 20:29:00,57.7,31.0,28.41,West,270,0.0,0.0,36,0.00,,---,0.00,VWS V14.01,2013-05-03 03:29:00,
2013-05-02 20:34:00,57.4,31.3,28.41,West,270,0.0,0.0,37,0.00,,---,0.00,VWS V14.01,2013-05-03 03:34:00,
2013-05-02 20:39:00,57.0,31.0,28.41,WNW,292,0.0,0.0,37,0.00,,---,0.00,VWS V14.01,2013-05-03 03:39:00,
2013-05-02 20:44:00,56.8,31.5,28.41,WNW,292,0.0,0.0,38,0.00,,---,0.00,VWS V14.01,2013-05-03 03:44:00,
2013-05-02 20:49:00,56.7,31.4,28.44,WNW,292,0.0,0.0,38,0.00,,---,0.00,VWS V14.01,2013-05-03 03:49:00,
2013-05-02 20:54:00,56.7,31.4,28.44,WNW,292,0.0,0.0,38,0.00,,---,0.00,VWS V14.01,2013-05-03 03:54:00,
2013-05-02 20:59:00,56.5,31.8,28.44,WNW,292,0.0,0.0,39,0.00,,---,0.00,VWS V14.01,2013-05-03 03:59:00,
2013-05-02 21:01:00,56.5,31.8,28.44,WNW,292,0.0,0.0,39,0.00,,---,0.00,VWS V14.01,2013-05-03 04:01:00,
2013-05-02 21:02:00,56.3,31.7,28.44,WNW,292,0.0,0.0,39,0.00,,---,0.00,VWS V14.01,2013-05-03 04:02:00,
2013-05-02 21:07:00,56.3,31.7,28.44,West,270,0.0,0.0,39,0.00,,---,0.00,VWS V14.01,2013-05-03 04:07:00,
2013-05-02 21:12:00,56.1,32.2,28.44,West,270,0.0,0.0,40,0.00,,---,0.00,VWS V14.01,2013-05-03 04:12:00,
2013-05-02 21:17:00,55.9,32.0,28.44,West,270,0.0,0.0,40,0.00,,---,0.00,VWS V14.01,2013-05-03 04:17:00,
2013-05-02 21:22:00,55.9,32.6,28.44,WNW,292,0.0,0.0,41,0.00,,---,0.00,VWS V14.01,2013-05-03 04:22:00,
2013-05-02 21:27:00,55.8,32.4,28.44,West,270,0.0,0.0,41,0.00,,---,0.00,VWS V14.01,2013-05-03 04:27:00,
2013-05-02 21:32:00,55.6,32.3,28.44,WNW,292,0.0,0.0,41,0.00,,---,0.00,VWS V14.01,2013-05-03 04:32:00,
2013-05-02 21:37:00,55.4,32.1,28.44,West,270,0.0,0.0,41,0.00,,---,0.00,VWS V14.01,2013-05-03 04:37:00,
2013-05-02 21:42:00,55.0,32.4,28.44,WNW,292,0.0,0.0,42,0.00,,---,0.00,VWS V14.01,2013-05-03 04:42:00,
2013-05-02 21:47:00,54.7,32.6,28.44,WNW,292,0.0,0.0,43,0.00,,---,0.00,VWS V14.01,2013-05-03 04:47:00,
2013-05-02 21:52:00,54.5,31.9,28.44,West,270,0.0,0.0,42,0.00,,---,0.00,VWS V14.01,2013-05-03 04:52:00,
2013-05-02 21:57:00,54.3,31.7,28.44,West,270,0.0,0.0,42,0.00,,---,0.00,VWS V14.01,2013-05-03 04:57:00,
2013-05-02 22:02:00,54.1,31.6,28.44,West,270,0.0,0.0,42,0.00,,---,0.00,VWS V14.01,2013-05-03 05:02:00,
2013-05-02 22:07:00,54.0,31.4,28.44,WSW,248,0.0,0.0,42,0.00,,---,0.00,VWS V14.01,2013-05-03 05:07:00,
2013-05-02 22:12:00,53.6,31.1,28.44,WSW,248,0.9,0.9,42,0.00,,---,0.00,VWS V14.01,2013-05-03 05:12:00,
2013-05-02 22:17:00,53.6,31.1,28.44,WSW,248,1.6,2.0,42,0.00,,---,0.00,VWS V14.01,2013-05-03 05:17:00,
2013-05-02 22:22:00,53.6,32.2,28.44,WSW,248,0.0,0.0,44,0.00,,---,0.00,VWS V14.01,2013-05-03 05:22:00,
2013-05-02 22:27:00,53.6,31.7,28.44,WSW,248,1.1,1.1,43,0.00,,---,0.00,VWS V14.01,2013-05-03 05:27:00,
2013-05-02 22:32:00,53.6,31.7,28.44,SW,225,0.0,0.0,43,0.00,,---,0.00,VWS V14.01,2013-05-03 05:32:00,
2013-05-02 22:37:00,53.2,31.9,28.44,WSW,248,0.0,0.0,44,0.00,,---,0.00,VWS V14.01,2013-05-03 05:37:00,
2013-05-02 22:42:00,53.1,31.7,28.44,WSW,248,0.0,0.0,44,0.00,,---,0.00,VWS V14.01,2013-05-03 05:42:00,
2013-05-02 22:47:00,52.9,31.6,28.44,WSW,248,0.0,0.0,44,0.00,,---,0.00,VWS V14.01,2013-05-03 05:47:00,
2013-05-02 22:52:00,52.5,31.2,28.44,WSW,248,0.0,0.0,44,0.00,,---,0.00,VWS V14.01,2013-05-03 05:52:00,
2013-05-02 22:57:00,52.2,31.5,28.44,WSW,248,0.0,0.0,45,0.00,,---,0.00,VWS V14.01,2013-05-03 05:57:00,
2013-05-02 23:02:00,51.6,31.0,28.44,WSW,248,0.0,0.0,45,0.00,,---,0.00,VWS V14.01,2013-05-03 06:02:00,
2013-05-02 23:07:00,51.3,30.7,28.44,WSW,248,0.0,0.0,45,0.00,,---,0.00,VWS V14.01,2013-05-03 06:07:00,
2013-05-02 23:12:00,50.9,30.3,28.44,NNW,338,0.0,0.0,45,0.00,,---,0.00,VWS V14.01,2013-05-03 06:12:00,
2013-05-02 23:17:00,50.5,30.5,28.44,WNW,292,0.0,0.0,46,0.00,,---,0.00,VWS V14.01,2013-05-03 06:17:00,
2013-05-02 23:23:00,50.2,30.2,28.44,WNW,292,0.0,0.0,46,0.00,,---,0.00,VWS V14.01,2013-05-03 06:23:00,
2013-05-02 23:28:00,50.0,30.6,28.44,NE,45,1.1,1.1,47,0.00,,---,0.00,VWS V14.01,2013-05-03 06:28:00,
2013-05-02 23:33:00,49.8,30.4,28.44,WSW,248,0.0,1.3,47,0.00,,---,0.00,VWS V14.01,2013-05-03 06:33:00,
2013-05-02 23:38:00,49.5,30.1,28.44,WSW,248,0.0,0.0,47,0.00,,---,0.00,VWS V14.01,2013-05-03 06:38:00,
2013-05-02 23:43:00,49.1,29.2,28.44,WSW,248,0.0,0.0,46,0.00,,---,0.00,VWS V14.01,2013-05-03 06:43:00,
2013-05-02 23:48:00,49.1,29.8,28.44,West,270,0.0,0.0,47,0.00,,---,0.00,VWS V14.01,2013-05-03 06:48:00,
2013-05-02 23:53:00,49.1,29.8,28.44,WNW,292,0.0,0.0,47,0.00,,---,0.00,VWS V14.01,2013-05-03 06:53:00,
2013-05-02 23:58:00,48.9,29.6,28.44,West,270,0.0,1.1,47,0.00,,---,0.00,VWS V14.01,2013-05-03 06:58:00,